Time;durP1;ratioP1;P1;durP2;ratioP2;P2;SDS_P1;SDS_P2;PMS_P1;PMS_P2;Temp;Humidity;BMP_temperature;BMP_pressure;BME280_temperature;BME280_humidity;BME280_pressure;Samples;Min_cycle;Max_cycle;Signal;HPM_P1;HPM_P2
2022/12/13 00:02:01;;;;;;;17.63;9.53;;;-3.30;99.90;;;;;;5070178;28;20032;-73
2022/12/13 00:04:27;;;;;;;17.00;9.67;;;-3.30;99.90;;;;;;5068522;28;20046;-74
2022/12/13 00:06:54;;;;;;;19.07;10.07;;;-3.30;99.90;;;;;;5079080;28;20040;-73
2022/12/13 00:09:21;;;;;;;18.30;9.13;;;-3.30;99.90;;;;;;5086881;28;20062;-74
2022/12/13 00:11:48;;;;;;;22.67;11.90;;;-3.30;99.90;;;;;;5086265;28;20055;-74
2022/12/13 00:14:15;;;;;;;19.33;10.23;;;-3.30;99.90;;;;;;5069899;28;20028;-74
2022/12/13 00:16:45;;;;;;;20.67;11.00;;;-3.30;99.90;;;;;;5080903;28;20038;-73
2022/12/13 00:19:12;;;;;;;19.27;9.83;;;-3.30;99.90;;;;;;5079363;28;20654;-74
2022/12/13 00:21:39;;;;;;;20.27;10.87;;;-3.30;99.90;;;;;;5098258;27;20075;-74
2022/12/13 00:24:06;;;;;;;19.53;10.00;;;-3.30;99.90;;;;;;5085518;28;20036;-74
2022/12/13 00:26:33;;;;;;;20.73;10.63;;;-3.40;99.90;;;;;;5062425;28;20048;-73
2022/12/13 00:29:00;;;;;;;22.63;10.90;;;-3.30;99.90;;;;;;5082563;28;20036;-74
2022/12/13 00:31:30;;;;;;;20.17;11.33;;;-3.30;99.90;;;;;;5069610;28;20170;-74
2022/12/13 00:33:58;;;;;;;21.53;10.70;;;-3.30;99.90;;;;;;5069699;28;20048;-74
2022/12/13 00:36:24;;;;;;;21.70;11.17;;;-3.30;99.90;;;;;;5066132;28;20043;-74
2022/12/13 00:38:59;;;;;;;20.77;11.07;;;-3.30;99.90;;;;;;5082139;28;20028;-75
2022/12/13 00:41:29;;;;;;;17.77;10.20;;;-3.30;99.90;;;;;;5069095;28;20058;-74
2022/12/13 00:43:55;;;;;;;21.33;10.17;;;-3.30;99.90;;;;;;5068928;28;20040;-74
2022/12/13 00:46:22;;;;;;;19.60;10.20;;;-3.30;99.90;;;;;;5084624;28;20422;-74
2022/12/13 00:48:51;;;;;;;19.77;10.07;;;-3.30;99.90;;;;;;5081401;28;20414;-74
2022/12/13 00:51:18;;;;;;;17.03;9.30;;;-3.30;99.90;;;;;;5069034;28;20043;-74
2022/12/13 00:53:45;;;;;;;18.57;9.60;;;-3.30;99.90;;;;;;5069141;28;20513;-74
2022/12/13 00:56:14;;;;;;;20.33;9.80;;;-3.30;99.90;;;;;;5067268;28;20031;-73
2022/12/13 00:58:41;;;;;;;19.10;10.33;;;-3.40;99.90;;;;;;5098836;28;20058;-74
2022/12/13 01:01:13;;;;;;;19.53;9.70;;;-3.40;99.90;;;;;;5083031;28;20495;-74
2022/12/13 01:03:40;;;;;;;21.23;11.20;;;-3.40;99.90;;;;;;5067874;28;20055;-73
2022/12/13 01:06:19;;;;;;;18.70;9.80;;;-3.30;99.90;;;;;;5086024;28;20470;-73
2022/12/13 01:08:47;;;;;;;17.27;9.57;;;-3.40;99.90;;;;;;5065929;28;20036;-74
2022/12/13 01:11:14;;;;;;;16.50;8.80;;;-3.40;99.90;;;;;;5069319;28;20506;-74
2022/12/13 01:13:41;;;;;;;17.77;10.40;;;-3.40;99.90;;;;;;5102721;28;20032;-74
2022/12/13 01:16:09;;;;;;;21.40;10.80;;;-3.40;99.90;;;;;;5084566;28;20028;-73
2022/12/13 01:18:38;;;;;;;19.33;10.57;;;-3.40;99.90;;;;;;5080049;28;20028;-74
2022/12/13 01:21:05;;;;;;;20.40;11.30;;;-3.40;99.90;;;;;;5084894;28;20047;-74
2022/12/13 01:23:33;;;;;;;22.50;10.93;;;-3.40;99.90;;;;;;5061742;28;20394;-74
2022/12/13 01:26:04;;;;;;;25.77;11.57;;;-3.50;99.90;;;;;;5084323;28;20036;-74
2022/12/13 01:28:31;;;;;;;18.97;9.30;;;-3.50;99.90;;;;;;5060376;28;20036;-74
2022/12/13 01:31:00;;;;;;;18.53;10.13;;;-3.50;99.90;;;;;;5083263;28;20051;-74
2022/12/13 01:33:28;;;;;;;17.90;10.23;;;-3.50;99.90;;;;;;5066860;28;20048;-74
2022/12/13 01:35:55;;;;;;;18.27;9.47;;;-3.50;99.90;;;;;;5067336;28;20047;-74
2022/12/13 01:38:21;;;;;;;18.90;9.57;;;-3.50;99.90;;;;;;5045325;28;20036;-74
2022/12/13 01:40:57;;;;;;;21.47;9.40;;;-3.50;99.90;;;;;;5079637;28;20917;-74
2022/12/13 01:43:51;;;;;;;18.17;9.30;;;-3.50;99.90;;;;;;5067266;28;20040;-74
2022/12/13 01:46:18;;;;;;;16.43;8.33;;;-3.50;99.90;;;;;;5076914;28;20058;-74
2022/12/13 01:49:11;;;;;;;28.23;13.73;;;-3.50;99.90;;;;;;5063616;28;20032;-74
2022/12/13 01:51:51;;;;;;;28.63;13.23;;;-3.50;99.90;;;;;;5086987;28;20054;-74
2022/12/13 01:54:21;;;;;;;40.03;17.90;;;-3.40;99.90;;;;;;5066761;28;20470;-74
2022/12/13 01:56:53;;;;;;;30.43;14.90;;;-3.30;99.90;;;;;;5077429;28;20028;-73
2022/12/13 01:59:21;;;;;;;26.07;14.77;;;-3.30;99.90;;;;;;5084803;28;20032;-74
2022/12/13 02:01:49;;;;;;;23.37;11.83;;;-3.20;99.90;;;;;;5068199;28;20090;-74
2022/12/13 02:04:20;;;;;;;22.33;10.73;;;-3.20;99.90;;;;;;5067555;28;20032;-74
2022/12/13 02:06:46;;;;;;;18.80;10.53;;;-3.30;99.90;;;;;;5078198;28;20040;-73
2022/12/13 02:09:13;;;;;;;19.20;9.50;;;-3.30;99.90;;;;;;5083894;28;20482;-74
2022/12/13 02:11:42;;;;;;;20.73;10.37;;;-3.40;99.90;;;;;;5084490;28;20470;-74
2022/12/13 02:14:08;;;;;;;19.90;10.37;;;-3.40;99.90;;;;;;5068238;28;20068;-74
2022/12/13 02:16:56;;;;;;;19.50;9.80;;;-3.50;99.90;;;;;;5079512;28;20036;-73
2022/12/13 02:19:40;;;;;;;19.13;10.53;;;-3.50;99.90;;;;;;5085837;28;20371;-74
2022/12/13 02:22:20;;;;;;;17.97;8.83;;;-3.50;99.90;;;;;;5067813;28;20076;-74
2022/12/13 02:25:02;;;;;;;19.37;9.77;;;-3.60;99.90;;;;;;5067976;28;20491;-74
2022/12/13 02:27:50;;;;;;;21.70;9.77;;;-3.60;99.90;;;;;;5044510;28;20028;-74
2022/12/13 02:30:21;;;;;;;19.10;9.37;;;-3.60;99.90;;;;;;5067914;28;20139;-74
2022/12/13 02:33:04;;;;;;;18.27;9.10;;;-3.60;99.90;;;;;;5084552;28;20036;-74
2022/12/13 02:35:30;;;;;;;;;;;-3.60;99.90;;;;;;5085276;28;20032;-74
2022/12/13 02:38:05;;;;;;;18.00;8.23;;;-3.70;99.90;;;;;;5060197;28;20327;-74
2022/12/13 02:40:38;;;;;;;13.40;8.10;;;-3.60;99.90;;;;;;5067901;28;20483;-74
2022/12/13 02:44:00;;;;;;;17.38;8.77;;;-3.60;99.90;;;;;;5066840;28;20040;-74
2022/12/13 02:46:29;;;;;;;20.23;9.37;;;-3.70;99.90;;;;;;5059839;28;20419;-74
2022/12/13 02:48:58;;;;;;;16.60;8.07;;;-3.70;99.90;;;;;;5083454;28;20491;-74
2022/12/13 02:51:27;;;;;;;18.33;9.37;;;-3.70;99.90;;;;;;5067995;28;20036;-74
2022/12/13 02:53:54;;;;;;;18.10;9.97;;;-3.70;99.90;;;;;;5065540;28;20048;-73
2022/12/13 02:56:20;;;;;;;16.67;8.47;;;-3.70;99.90;;;;;;5064275;28;20047;-74
2022/12/13 02:58:51;;;;;;;19.53;9.60;;;-3.70;99.90;;;;;;5063727;28;20043;-74
2022/12/13 03:01:20;;;;;;;17.97;9.33;;;-3.70;99.90;;;;;;5067458;28;20036;-74
2022/12/13 03:04:08;;;;;;;17.50;9.63;;;-3.70;99.90;;;;;;5082500;28;20040;-74
2022/12/13 03:06:49;;;;;;;19.43;9.80;;;-3.70;99.90;;;;;;5063253;28;20052;-74
2022/12/13 03:09:24;;;;;;;17.63;7.90;;;-3.70;99.90;;;;;;5068846;28;20048;-74
2022/12/13 03:15:29;;;;;;;18.20;9.13;;;-3.70;99.90;;;;;;5090674;28;20036;-74
2022/12/13 03:18:03;;;;;;;18.30;9.40;;;-3.80;99.90;;;;;;5060566;28;20028;-74
2022/12/13 03:20:30;;;;;;;23.33;10.53;;;-3.80;99.90;;;;;;5086036;28;20364;-74
2022/12/13 03:22:57;;;;;;;21.33;9.57;;;-3.80;99.90;;;;;;5085010;28;20020;-74
2022/12/13 03:25:26;;;;;;;16.40;9.10;;;-3.80;99.90;;;;;;5088475;28;20047;-74
2022/12/13 03:27:54;;;;;;;16.30;9.17;;;-3.80;99.90;;;;;;5082482;28;20024;-74
2022/12/13 03:30:20;;;;;;;19.77;9.37;;;-3.80;99.90;;;;;;5089730;28;20054;-75
2022/12/13 03:32:47;;;;;;;17.37;9.13;;;-3.80;99.90;;;;;;5071481;28;20031;-74
2022/12/13 03:35:13;;;;;;;20.40;9.63;;;-3.80;99.90;;;;;;5090297;28;20028;-74
2022/12/13 03:37:39;;;;;;;18.77;9.77;;;-3.80;99.90;;;;;;5080981;28;20035;-74
2022/12/13 03:40:06;;;;;;;17.23;9.37;;;-3.80;99.90;;;;;;5090276;28;20036;-74
2022/12/13 03:42:33;;;;;;;17.50;9.33;;;-3.80;99.90;;;;;;5072063;28;20032;-74
2022/12/13 03:45:00;;;;;;;19.47;10.33;;;-3.90;99.90;;;;;;5088457;28;20040;-74
2022/12/13 03:47:26;;;;;;;16.67;9.13;;;-3.90;99.90;;;;;;5064546;28;20403;-74
2022/12/13 03:49:54;;;;;;;18.07;9.13;;;-3.90;99.90;;;;;;5088821;28;20032;-74
2022/12/13 03:52:21;;;;;;;21.50;9.53;;;-3.90;99.90;;;;;;5088255;28;20051;-74
2022/12/13 03:54:47;;;;;;;19.27;9.90;;;-3.90;99.90;;;;;;5088345;28;20036;-74
2022/12/13 03:57:14;;;;;;;18.37;9.27;;;-3.90;99.90;;;;;;5064032;28;20047;-74
2022/12/13 03:59:40;;;;;;;17.60;8.60;;;-3.90;99.90;;;;;;5054777;28;20403;-74
2022/12/13 04:02:07;;;;;;;22.03;10.33;;;-3.90;99.90;;;;;;5087057;28;20036;-75
2022/12/13 04:04:33;;;;;;;19.13;9.47;;;-3.90;99.90;;;;;;5071082;28;20479;-74
2022/12/13 04:07:00;;;;;;;22.30;10.20;;;-3.90;99.90;;;;;;5080053;28;20035;-74
2022/12/13 04:09:26;;;;;;;20.60;10.43;;;-3.90;99.90;;;;;;5075887;28;20043;-75
2022/12/13 04:14:37;;;;;;;16.03;8.40;;;-3.90;99.90;;;;;;5079555;28;20043;-75
2022/12/13 04:17:04;;;;;;;17.33;8.87;;;-3.90;99.90;;;;;;5062646;28;20047;-75
2022/12/13 04:19:30;;;;;;;18.93;9.33;;;-3.90;99.90;;;;;;5070134;28;20039;-74
2022/12/13 04:21:56;;;;;;;19.37;9.97;;;-3.90;99.90;;;;;;5070779;28;20039;-75
2022/12/13 04:24:24;;;;;;;17.13;9.43;;;-3.90;99.90;;;;;;5071378;28;20035;-75
2022/12/13 04:26:50;;;;;;;21.17;10.83;;;-4.00;99.90;;;;;;5062796;28;20044;-74
2022/12/13 04:29:17;;;;;;;19.10;9.40;;;-4.00;99.90;;;;;;5086714;28;20047;-74
2022/12/13 04:31:43;;;;;;;18.73;9.37;;;-4.00;99.90;;;;;;5070723;28;20660;-75
2022/12/13 04:34:10;;;;;;;19.20;9.63;;;-4.00;99.90;;;;;;5087293;28;20046;-74
2022/12/13 04:36:36;;;;;;;17.87;9.60;;;-4.00;99.90;;;;;;5065155;28;20035;-74
2022/12/13 04:39:04;;;;;;;17.77;9.27;;;-4.00;99.90;;;;;;5085155;28;20042;-74
2022/12/13 04:41:35;;;;;;;22.10;9.97;;;-4.00;99.90;;;;;;5087692;28;20036;-74
2022/12/13 04:44:03;;;;;;;18.73;9.03;;;-4.00;99.90;;;;;;5068298;28;20047;-75
2022/12/13 04:46:29;;;;;;;19.27;8.93;;;-4.00;99.90;;;;;;5084509;28;20036;-74
2022/12/13 04:48:56;;;;;;;17.37;8.73;;;-4.10;99.90;;;;;;5067270;28;20399;-74
2022/12/13 04:51:23;;;;;;;19.10;8.97;;;-4.10;99.90;;;;;;5088304;28;20028;-74
2022/12/13 04:53:49;;;;;;;16.87;8.80;;;-4.10;99.90;;;;;;5087274;28;20040;-75
2022/12/13 04:56:16;;;;;;;20.73;9.23;;;-4.10;99.90;;;;;;5067967;28;20498;-74
2022/12/13 04:58:42;;;;;;;24.50;11.23;;;-4.10;99.90;;;;;;5063274;28;20040;-74
2022/12/13 05:01:10;;;;;;;20.77;9.83;;;-4.10;99.90;;;;;;5086682;28;20032;-74
2022/12/13 05:03:37;;;;;;;19.83;10.03;;;-4.10;99.90;;;;;;5086573;28;20378;-74
2022/12/13 05:06:08;;;;;;;19.57;9.67;;;-4.10;99.90;;;;;;5085488;28;20044;-73
2022/12/13 05:08:36;;;;;;;18.47;9.73;;;-4.20;99.90;;;;;;5080174;28;20389;-74
2022/12/13 05:11:07;;;;;;;18.33;8.97;;;-4.20;99.90;;;;;;5068775;28;20700;-74
2022/12/13 05:13:34;;;;;;;16.67;8.57;;;-4.20;99.90;;;;;;5053986;28;20040;-74
2022/12/13 05:16:03;;;;;;;18.63;9.40;;;-4.20;99.90;;;;;;5068486;28;20043;-74
2022/12/13 05:18:30;;;;;;;27.13;12.27;;;-4.20;99.90;;;;;;5074220;28;20378;-74
2022/12/13 05:21:02;;;;;;;20.13;9.70;;;-4.20;99.90;;;;;;5084455;28;20049;-75
2022/12/13 05:23:28;;;;;;;19.87;10.20;;;-4.20;99.90;;;;;;5097136;28;20040;-74
2022/12/13 05:25:54;;;;;;;27.10;11.77;;;-4.20;99.90;;;;;;5067572;28;20067;-74
2022/12/13 05:28:24;;;;;;;26.87;11.80;;;-4.20;99.90;;;;;;5076230;28;20050;-77
2022/12/13 05:30:51;;;;;;;23.57;11.83;;;-4.30;99.90;;;;;;5084504;28;20040;-74
2022/12/13 05:33:17;;;;;;;20.93;10.53;;;-4.30;99.90;;;;;;5068602;28;20039;-75
2022/12/13 05:35:46;;;;;;;20.63;10.37;;;-4.30;99.90;;;;;;5072861;28;20028;-74
2022/12/13 05:38:12;;;;;;;18.47;9.63;;;-4.30;99.90;;;;;;5060106;28;20054;-74
2022/12/13 05:40:39;;;;;;;21.10;9.37;;;-4.30;99.90;;;;;;5087119;28;20043;-74
2022/12/13 05:43:06;;;;;;;18.97;9.03;;;-4.30;99.90;;;;;;5068155;28;20035;-75
2022/12/13 05:45:32;;;;;;;18.07;9.27;;;-4.30;99.90;;;;;;5068361;28;20055;-75
2022/12/13 05:47:59;;;;;;;19.77;9.13;;;-4.30;99.90;;;;;;5095115;28;20040;-75
2022/12/13 05:50:25;;;;;;;16.50;7.93;;;-4.30;99.90;;;;;;5068923;28;20520;-74
2022/12/13 05:52:52;;;;;;;16.33;7.97;;;-4.30;99.90;;;;;;5066871;28;20383;-75
2022/12/13 05:55:18;;;;;;;15.83;8.07;;;-4.30;99.90;;;;;;5069209;28;20043;-75
2022/12/13 05:57:45;;;;;;;19.70;9.47;;;-4.30;99.90;;;;;;5061313;28;20042;-74
2022/12/13 06:00:12;;;;;;;15.10;8.17;;;-4.30;99.90;;;;;;5085752;28;21422;-74
2022/12/13 06:02:43;;;;;;;14.47;8.17;;;-4.30;99.90;;;;;;5068956;28;20031;-74
2022/12/13 06:05:10;;;;;;;20.53;9.00;;;-4.40;99.90;;;;;;5103045;28;20398;-74
2022/12/13 06:07:37;;;;;;;19.53;9.00;;;-4.30;99.90;;;;;;5061072;28;20036;-75
2022/12/13 06:10:05;;;;;;;16.87;9.00;;;-4.40;99.90;;;;;;5085134;28;20028;-75
2022/12/13 06:12:34;;;;;;;21.93;10.60;;;-4.40;99.90;;;;;;5068491;28;20036;-75
2022/12/13 06:15:00;;;;;;;18.90;9.33;;;-4.40;99.90;;;;;;5068390;28;20545;-76
2022/12/13 06:17:34;;;;;;;17.93;9.10;;;-4.40;99.90;;;;;;5059720;28;20722;-76
2022/12/13 06:20:02;;;;;;;17.27;8.47;;;-4.40;99.90;;;;;;5083436;28;20434;-76
2022/12/13 06:22:28;;;;;;;16.40;8.30;;;-4.40;99.90;;;;;;5085060;28;20047;-75
2022/12/13 06:24:54;;;;;;;19.80;9.37;;;-4.40;99.90;;;;;;5084650;28;20047;-76
2022/12/13 06:27:21;;;;;;;15.20;7.73;;;-4.40;99.90;;;;;;5077780;28;20051;-76
2022/12/13 06:29:47;;;;;;;17.47;8.20;;;-4.40;99.90;;;;;;5085400;28;20028;-75
2022/12/13 06:32:13;;;;;;;22.57;11.70;;;-4.40;99.90;;;;;;5057826;28;20546;-76
2022/12/13 06:34:40;;;;;;;19.33;10.03;;;-4.40;99.90;;;;;;5068708;28;20501;-77
2022/12/13 06:37:10;;;;;;;19.20;9.90;;;-4.40;99.90;;;;;;5079871;28;20479;-75
2022/12/13 06:39:36;;;;;;;21.83;10.13;;;-4.40;99.90;;;;;;5068046;28;20495;-76
2022/12/13 06:42:04;;;;;;;16.87;7.97;;;-4.40;99.90;;;;;;5085688;28;20298;-75
2022/12/13 06:44:32;;;;;;;22.77;10.60;;;-4.40;99.90;;;;;;5052948;28;20570;-76
2022/12/13 06:47:02;;;;;;;22.23;9.67;;;-4.40;99.90;;;;;;5077565;28;20052;-75
2022/12/13 06:49:28;;;;;;;19.87;9.63;;;-4.40;99.90;;;;;;5085030;28;20044;-76
2022/12/13 06:51:54;;;;;;;22.97;10.43;;;-4.40;99.90;;;;;;5085759;28;20274;-76
2022/12/13 06:54:21;;;;;;;17.67;9.57;;;-4.40;99.90;;;;;;5068816;28;20039;-76
2022/12/13 06:56:47;;;;;;;17.73;9.60;;;-4.50;99.90;;;;;;5078916;28;20047;-75
2022/12/13 06:59:14;;;;;;;27.43;10.43;;;-4.50;99.90;;;;;;5089856;28;20425;-76
2022/12/13 07:01:40;;;;;;;19.93;9.97;;;-4.50;99.90;;;;;;5106463;28;20131;-76
2022/12/13 07:04:09;;;;;;;24.20;10.63;;;-4.50;99.90;;;;;;5068655;28;20052;-77
2022/12/13 07:06:36;;;;;;;27.00;12.77;;;-4.50;99.90;;;;;;5084480;28;20048;-76
2022/12/13 07:09:03;;;;;;;22.67;11.30;;;-4.50;99.90;;;;;;5087169;28;20461;-76
2022/12/13 07:11:32;;;;;;;20.50;10.53;;;-4.50;99.90;;;;;;5090316;28;20040;-76
2022/12/13 07:13:59;;;;;;;23.27;10.60;;;-4.50;99.90;;;;;;5073579;28;20032;-76
2022/12/13 07:16:27;;;;;;;28.20;12.07;;;-4.50;99.90;;;;;;5088326;28;20381;-76
2022/12/13 07:18:55;;;;;;;22.13;10.97;;;-4.50;99.90;;;;;;5089854;28;20036;-77
2022/12/13 07:21:22;;;;;;;19.63;9.80;;;-4.50;99.90;;;;;;5059839;28;20526;-77
2022/12/13 07:23:51;;;;;;;20.90;10.03;;;-4.50;99.90;;;;;;5090217;28;20027;-77
2022/12/13 07:26:18;;;;;;;22.40;9.70;;;-4.50;99.90;;;;;;5086294;28;20047;-77
2022/12/13 07:28:45;;;;;;;22.33;10.23;;;-4.50;99.90;;;;;;5068175;28;20561;-76
2022/12/13 07:31:13;;;;;;;20.90;9.63;;;-4.50;99.90;;;;;;5072083;28;20039;-77
2022/12/13 07:33:39;;;;;;;20.33;9.30;;;-4.50;99.90;;;;;;5089426;28;20050;-77
2022/12/13 07:36:15;;;;;;;18.30;9.53;;;-4.50;99.90;;;;;;5054480;28;20533;-76
2022/12/13 07:38:41;;;;;;;17.60;8.50;;;-4.50;99.90;;;;;;5083803;28;20375;-77
2022/12/13 07:41:08;;;;;;;19.70;9.53;;;-4.50;99.90;;;;;;5068055;28;20046;-77
2022/12/13 07:43:35;;;;;;;18.70;9.17;;;-4.50;99.90;;;;;;5088119;28;20039;-77
2022/12/13 07:46:04;;;;;;;19.47;9.80;;;-4.50;99.90;;;;;;5055023;28;20036;-75
2022/12/13 07:48:32;;;;;;;18.30;9.37;;;-4.50;99.90;;;;;;5065081;28;20043;-75
2022/12/13 07:51:06;;;;;;;18.67;9.20;;;-4.50;99.90;;;;;;5088437;28;20510;-76
2022/12/13 07:53:33;;;;;;;18.23;8.80;;;-4.40;99.90;;;;;;5088876;28;20043;-76
2022/12/13 07:56:04;;;;;;;25.60;12.50;;;-4.40;99.90;;;;;;5088460;28;20414;-76
2022/12/13 07:58:32;;;;;;;22.20;10.57;;;-4.40;99.90;;;;;;5098399;28;20043;-76
2022/12/13 08:01:00;;;;;;;21.53;9.87;;;-4.40;99.90;;;;;;5070818;28;20318;-76
2022/12/13 08:03:28;;;;;;;20.00;9.60;;;-4.40;99.90;;;;;;5070548;28;20491;-76
2022/12/13 08:06:04;;;;;;;18.37;8.37;;;-4.40;99.90;;;;;;5071133;28;20040;-76
2022/12/13 08:08:31;;;;;;;18.80;9.10;;;-4.30;99.90;;;;;;5081453;28;20047;-76
2022/12/13 08:11:03;;;;;;;20.83;10.40;;;-4.30;99.90;;;;;;5070001;28;20039;-76
2022/12/13 08:13:30;;;;;;;21.52;10.75;;;-4.30;99.90;;;;;;5071110;28;20032;-76
2022/12/13 08:16:01;;;;;;;22.07;9.47;;;-4.30;99.90;;;;;;5088178;28;20028;-76
2022/12/13 08:18:28;;;;;;;23.17;11.17;;;-4.20;99.90;;;;;;5062812;28;20043;-75
2022/12/13 08:20:59;;;;;;;22.30;11.17;;;-4.20;99.90;;;;;;5086337;28;20071;-75
2022/12/13 08:23:26;;;;;;;29.80;12.90;;;-4.10;99.90;;;;;;5071053;28;20216;-76
2022/12/13 08:25:53;;;;;;;23.97;11.57;;;-4.10;99.90;;;;;;5071243;28;20047;-75
2022/12/13 08:28:22;;;;;;;23.70;11.10;;;-4.10;99.90;;;;;;5062598;28;20424;-76
2022/12/13 08:30:50;;;;;;;24.90;12.43;;;-4.10;99.90;;;;;;5070528;28;20049;-76
2022/12/13 08:33:16;;;;;;;26.83;12.53;;;-4.00;99.90;;;;;;5087073;28;20032;-76
2022/12/13 08:35:43;;;;;;;24.30;13.50;;;-3.90;99.90;;;;;;5087380;28;20047;-75
2022/12/13 08:38:10;;;;;;;30.33;14.70;;;-3.80;99.90;;;;;;5080039;28;20020;-76
2022/12/13 08:40:37;;;;;;;28.30;14.73;;;-3.80;99.90;;;;;;5070162;28;20044;-76
2022/12/13 08:43:04;;;;;;;32.70;16.93;;;-3.70;99.90;;;;;;5087732;28;20024;-75
2022/12/13 08:45:33;;;;;;;31.87;17.13;;;-3.60;99.90;;;;;;5088647;28;20040;-75
2022/12/13 08:48:00;;;;;;;31.23;16.00;;;-3.60;99.90;;;;;;5079928;28;20413;-75
2022/12/13 08:50:28;;;;;;;37.80;18.20;;;-3.50;99.90;;;;;;5087167;28;20040;-75
2022/12/13 08:52:55;;;;;;;47.13;22.23;;;-3.40;99.90;;;;;;5070515;28;20821;-76
2022/12/13 08:55:21;;;;;;;45.17;20.90;;;-3.40;99.90;;;;;;5087173;28;20036;-76
2022/12/13 08:57:48;;;;;;;40.37;19.80;;;-3.30;99.90;;;;;;5072109;28;20035;-76
2022/12/13 09:00:16;;;;;;;39.30;20.37;;;-3.20;99.90;;;;;;5085867;28;20043;-75
2022/12/13 09:02:43;;;;;;;36.20;18.17;;;-3.20;99.90;;;;;;5070108;28;20036;-75
2022/12/13 09:05:11;;;;;;;36.40;18.80;;;-3.10;99.90;;;;;;5069772;28;20050;-75
2022/12/13 09:07:39;;;;;;;31.07;16.33;;;-3.10;99.90;;;;;;5062064;28;20530;-74
2022/12/13 09:10:07;;;;;;;33.63;17.00;;;-3.00;99.90;;;;;;5086617;28;20032;-75
2022/12/13 09:12:34;;;;;;;34.80;18.53;;;-3.00;99.90;;;;;;5086788;28;20035;-74
2022/12/13 09:15:00;;;;;;;43.77;21.40;;;-3.00;99.90;;;;;;5086811;28;20043;-74
2022/12/13 09:17:30;;;;;;;41.63;22.97;;;-2.90;99.90;;;;;;5062706;28;20066;-74
2022/12/13 09:19:57;;;;;;;37.63;19.37;;;-2.90;99.90;;;;;;5068704;28;20071;-73
2022/12/13 09:22:23;;;;;;;39.40;20.67;;;-2.80;99.90;;;;;;5068309;28;20032;-74
2022/12/13 09:24:49;;;;;;;40.27;20.80;;;-2.80;99.90;;;;;;5069056;28;20483;-73
2022/12/13 09:27:16;;;;;;;46.70;23.23;;;-2.70;99.90;;;;;;5079112;28;20048;-74
2022/12/13 09:29:42;;;;;;;40.10;21.47;;;-2.70;99.90;;;;;;5085641;28;20032;-75
2022/12/13 09:32:09;;;;;;;42.03;22.37;;;-2.60;99.90;;;;;;5068295;28;20239;-75
2022/12/13 09:34:35;;;;;;;46.23;24.87;;;-2.50;99.90;;;;;;5086355;28;20044;-75
2022/12/13 09:37:01;;;;;;;46.53;24.83;;;-2.50;99.90;;;;;;5080069;28;20035;-76
2022/12/13 09:39:28;;;;;;;43.50;23.57;;;-2.40;99.90;;;;;;5068864;28;20047;-75
2022/12/13 09:41:58;;;;;;;51.10;26.27;;;-2.30;99.90;;;;;;5052211;28;20043;-74
2022/12/13 09:44:41;;;;;;;51.13;26.00;;;-2.20;99.90;;;;;;5068822;28;20032;-75
2022/12/13 09:47:21;;;;;;;45.80;24.70;;;-2.00;99.90;;;;;;5060791;28;20071;-75
2022/12/13 09:49:47;;;;;;;54.47;25.83;;;-1.70;99.90;;;;;;5052011;28;20028;-75
2022/12/13 09:52:17;;;;;;;52.73;28.47;;;-1.50;99.90;;;;;;5068793;28;20036;-74
2022/12/13 09:54:44;;;;;;;43.17;23.60;;;-1.30;99.90;;;;;;5085231;28;20039;-74
2022/12/13 09:57:24;;;;;;;59.03;29.23;;;-1.10;99.90;;;;;;5077309;28;20040;-75
2022/12/13 09:59:51;;;;;;;47.27;26.73;;;-0.70;99.90;;;;;;5075098;28;20035;-75
2022/12/13 10:02:27;;;;;;;54.53;28.50;;;-0.40;99.90;;;;;;5068062;28;20396;-75
2022/12/13 10:05:22;;;;;;;45.07;25.07;;;-0.10;99.90;;;;;;5070548;28;20043;-74
2022/12/13 10:07:51;;;;;;;41.57;23.97;;;0.10;99.90;;;;;;5076081;28;20052;-74
2022/12/13 10:10:17;;;;;;;36.23;22.47;;;0.50;99.90;;;;;;5069143;28;20047;-75
2022/12/13 10:12:47;;;;;;;37.37;23.63;;;0.90;99.90;;;;;;5072173;28;20506;-74
2022/12/13 10:15:18;;;;;;;29.67;19.80;;;1.10;99.90;;;;;;5071443;28;20043;-74
2022/12/13 10:17:47;;;;;;;34.90;22.23;;;1.20;99.90;;;;;;5074288;28;20028;-74
2022/12/13 10:20:20;;;;;;;33.00;21.57;;;1.20;99.90;;;;;;5065102;28;20465;-75
2022/12/13 10:22:47;;;;;;;34.13;22.00;;;1.30;99.90;;;;;;5085924;28;20036;-74
2022/12/13 10:25:13;;;;;;;36.57;22.20;;;1.20;99.90;;;;;;5085228;28;20031;-74
2022/12/13 10:27:44;;;;;;;38.17;25.37;;;1.00;99.90;;;;;;5078091;28;20047;-75
2022/12/13 10:30:20;;;;;;;41.67;25.43;;;0.70;99.90;;;;;;5067865;28;20036;-74
2022/12/13 10:32:55;;;;;;;38.07;25.03;;;0.50;99.90;;;;;;5067836;28;20372;-74
2022/12/13 10:35:37;;;;;;;42.50;26.57;;;0.20;99.90;;;;;;5068245;28;20051;-74
2022/12/13 10:38:06;;;;;;;46.33;27.50;;;0.00;99.90;;;;;;5078013;28;20410;-75
2022/12/13 10:40:44;;;;;;;48.33;29.27;;;-0.30;99.90;;;;;;5085829;28;20043;-74
2022/12/13 10:43:19;;;;;;;44.30;27.23;;;-0.40;99.90;;;;;;5077577;28;20223;-74
2022/12/13 10:46:02;;;;;;;45.43;25.67;;;-0.50;99.90;;;;;;5078714;28;20054;-74
2022/12/13 10:48:34;;;;;;;46.83;27.07;;;-0.60;99.90;;;;;;5055912;28;20510;-75
2022/12/13 10:51:04;;;;;;;44.72;25.83;;;-0.70;99.90;;;;;;5083145;28;20028;-73
2022/12/13 10:53:34;;;;;;;39.03;23.37;;;-0.80;99.90;;;;;;5064481;28;20068;-74
2022/12/13 10:56:01;;;;;;;39.20;22.17;;;-0.90;99.90;;;;;;5080629;28;20464;-75
2022/12/13 10:58:38;;;;;;;44.13;25.60;;;-0.90;99.90;;;;;;5056105;28;20039;-74
2022/12/13 11:01:27;;;;;;;41.20;24.10;;;-0.90;99.90;;;;;;5064567;28;20036;-73
2022/12/13 11:04:03;;;;;;;39.67;23.67;;;-0.90;99.90;;;;;;5066219;28;20474;-74
2022/12/13 11:06:44;;;;;;;48.47;25.73;;;-0.90;99.90;;;;;;5061439;28;20040;-73
2022/12/13 11:09:43;;;;;;;46.13;26.63;;;-0.80;99.90;;;;;;5050232;28;20047;-73
2022/12/13 11:12:17;;;;;;;46.17;26.33;;;-0.80;99.90;;;;;;5029930;28;20441;-73
2022/12/13 11:15:13;;;;;;;48.90;28.70;;;-0.80;99.90;;;;;;5092404;28;20040;-74
2022/12/13 11:17:54;;;;;;;47.13;28.17;;;-0.70;99.90;;;;;;5086183;28;20051;-73
2022/12/13 11:20:24;;;;;;;52.17;30.57;;;-0.70;99.90;;;;;;5075402;28;20060;-73
2022/12/13 11:23:04;;;;;;;63.47;34.03;;;-0.60;99.90;;;;;;5065804;28;20032;-73
2022/12/13 11:25:42;;;;;;;54.67;32.37;;;-0.60;99.90;;;;;;5065644;28;20035;-73
2022/12/13 11:28:23;;;;;;;52.80;30.17;;;-0.60;99.90;;;;;;5072833;28;20067;-74
2022/12/13 11:31:04;;;;;;;54.43;31.27;;;-0.60;99.90;;;;;;5079669;28;20043;-74
2022/12/13 11:33:54;;;;;;;57.93;30.07;;;-0.60;99.90;;;;;;5078024;28;20036;-73
2022/12/13 11:36:39;;;;;;;54.00;31.97;;;-0.60;99.90;;;;;;5065256;28;20043;-73
2022/12/13 11:39:20;;;;;;;49.03;29.07;;;-0.60;99.90;;;;;;5066037;28;20036;-74
2022/12/13 11:41:49;;;;;;;60.03;32.77;;;-0.60;99.90;;;;;;5084275;28;20103;-75
2022/12/13 11:44:42;;;;;;;56.23;30.30;;;-0.60;99.90;;;;;;5052384;28;20044;-75
2022/12/13 11:47:26;;;;;;;52.30;30.90;;;-0.60;99.90;;;;;;5080226;28;20044;-75
2022/12/13 11:49:55;;;;;;;54.80;32.27;;;-0.70;99.90;;;;;;5088969;28;20024;-75
2022/12/13 11:52:29;;;;;;;56.23;32.17;;;-0.70;99.90;;;;;;5071765;28;20752;-75
2022/12/13 11:55:04;;;;;;;48.97;28.67;;;-0.70;99.90;;;;;;5084368;28;20031;-75
2022/12/13 11:57:45;;;;;;;51.97;29.23;;;-0.70;99.90;;;;;;5077200;28;20044;-75
2022/12/13 12:00:27;;;;;;;50.67;29.57;;;-0.70;99.90;;;;;;5086924;28;20040;-75
2022/12/13 12:03:09;;;;;;;47.07;27.13;;;-0.70;99.90;;;;;;5086660;28;20044;-75
2022/12/13 12:05:46;;;;;;;42.17;25.33;;;-0.70;99.90;;;;;;5086754;28;20036;-75
2022/12/13 12:08:34;;;;;;;47.97;27.47;;;-0.70;99.90;;;;;;5080049;28;20044;-75
2022/12/13 12:11:10;;;;;;;48.53;28.07;;;-0.70;99.90;;;;;;5071446;28;20039;-74
2022/12/13 12:13:47;;;;;;;48.63;28.37;;;-0.80;99.90;;;;;;5089706;28;20419;-75
2022/12/13 12:16:42;;;;;;;48.83;29.10;;;-0.90;99.90;;;;;;5067210;28;20028;-73
2022/12/13 12:19:25;;;;;;;48.87;26.80;;;-0.90;99.90;;;;;;5078981;28;20032;-76
2022/12/13 12:22:23;;;;;;;50.47;28.33;;;-1.00;99.90;;;;;;5070047;28;20051;-75
2022/12/13 12:25:02;;;;;;;45.80;25.03;;;-1.00;99.90;;;;;;5087227;28;20290;-75
2022/12/13 12:27:59;;;;;;;51.00;28.97;;;-1.00;99.90;;;;;;5061099;28;20452;-75
2022/12/13 12:30:58;;;;;;;51.97;30.70;;;-1.00;99.90;;;;;;5068482;28;20035;-73
2022/12/13 12:33:53;;;;;;;52.03;30.43;;;-1.10;99.90;;;;;;5070133;28;20036;-73
2022/12/13 12:36:49;;;;;;;47.33;27.00;;;-1.10;99.90;;;;;;5070845;28;20028;-74
2022/12/13 12:39:35;;;;;;;58.13;30.40;;;-1.10;99.90;;;;;;5086270;28;20035;-74
2022/12/13 12:42:15;;;;;;;49.73;27.60;;;-1.20;99.90;;;;;;5087321;28;20036;-74
2022/12/13 12:44:45;;;;;;;45.37;26.43;;;-1.20;99.90;;;;;;5070408;28;20036;-75
2022/12/13 12:47:49;;;;;;;43.80;24.43;;;-1.20;99.90;;;;;;5079508;28;20067;-74
2022/12/13 12:50:24;;;;;;;42.80;24.60;;;-1.20;99.90;;;;;;5086073;28;20035;-75
2022/12/13 12:52:54;;;;;;;42.27;24.20;;;-1.20;99.90;;;;;;5087130;28;20032;-75
2022/12/13 12:55:58;;;;;;;46.80;25.63;;;-1.10;99.90;;;;;;5086036;28;20039;-73
2022/12/13 12:58:52;;;;;;;46.93;26.13;;;-1.10;99.90;;;;;;5061345;28;20032;-72